sensor_id;sensor_type;location;lat;lon;timestamp;temperature;humidity
32614;DHT22;19031;51.400;6.770;2023-02-04T00:00:49;8.10;99.90
32614;DHT22;19031;51.400;6.770;2023-02-04T00:03:15;8.10;99.90
32614;DHT22;19031;51.400;6.770;2023-02-04T00:05:41;8.10;99.90
32614;DHT22;19031;51.400;6.770;2023-02-04T00:08:07;8.10;99.90
32614;DHT22;19031;51.400;6.770;2023-02-04T00:10:33;8.10;99.90
32614;DHT22;19031;51.400;6.770;2023-02-04T00:12:59;8.10;99.90
32614;DHT22;19031;51.400;6.770;2023-02-04T00:15:24;8.10;99.90
32614;DHT22;19031;51.400;6.770;2023-02-04T00:17:50;8.10;99.90
32614;DHT22;19031;51.400;6.770;2023-02-04T00:20:16;8.10;99.90
32614;DHT22;19031;51.400;6.770;2023-02-04T00:22:42;8.10;99.90
32614;DHT22;19031;51.400;6.770;2023-02-04T00:25:08;8.10;99.90
32614;DHT22;19031;51.400;6.770;2023-02-04T00:27:34;8.10;99.90
32614;DHT22;19031;51.400;6.770;2023-02-04T00:29:59;8.10;99.90
32614;DHT22;19031;51.400;6.770;2023-02-04T00:32:25;8.10;99.90
32614;DHT22;19031;51.400;6.770;2023-02-04T00:34:50;8.10;99.90
32614;DHT22;19031;51.400;6.770;2023-02-04T00:37:18;8.10;99.90
32614;DHT22;19031;51.400;6.770;2023-02-04T00:39:43;8.10;99.90
32614;DHT22;19031;51.400;6.770;2023-02-04T00:42:09;8.10;99.90
32614;DHT22;19031;51.400;6.770;2023-02-04T00:44:35;8.10;99.90
32614;DHT22;19031;51.400;6.770;2023-02-04T00:47:01;8.10;99.90
32614;DHT22;19031;51.400;6.770;2023-02-04T00:49:26;8.10;99.90
32614;DHT22;19031;51.400;6.770;2023-02-04T00:51:52;8.00;99.90
32614;DHT22;19031;51.400;6.770;2023-02-04T00:54:17;8.00;99.90
32614;DHT22;19031;51.400;6.770;2023-02-04T00:56:43;8.10;99.90
32614;DHT22;19031;51.400;6.770;2023-02-04T00:59:09;8.00;99.90
32614;DHT22;19031;51.400;6.770;2023-02-04T01:01:34;8.00;99.90
32614;DHT22;19031;51.400;6.770;2023-02-04T01:04:00;8.00;99.90
32614;DHT22;19031;51.400;6.770;2023-02-04T01:06:26;8.10;99.90
32614;DHT22;19031;51.400;6.770;2023-02-04T01:08:51;8.00;99.90
32614;DHT22;19031;51.400;6.770;2023-02-04T01:11:18;8.10;99.90
32614;DHT22;19031;51.400;6.770;2023-02-04T01:13:43;8.10;99.90
32614;DHT22;19031;51.400;6.770;2023-02-04T01:16:09;8.20;99.90
32614;DHT22;19031;51.400;6.770;2023-02-04T01:18:35;8.10;99.90
32614;DHT22;19031;51.400;6.770;2023-02-04T01:21:01;8.10;99.90
32614;DHT22;19031;51.400;6.770;2023-02-04T01:23:26;8.10;99.90
32614;DHT22;19031;51.400;6.770;2023-02-04T01:25:52;8.20;99.90
32614;DHT22;19031;51.400;6.770;2023-02-04T01:28:18;8.10;99.90
32614;DHT22;19031;51.400;6.770;2023-02-04T01:30:43;8.00;99.90
32614;DHT22;19031;51.400;6.770;2023-02-04T01:33:09;8.10;99.90
32614;DHT22;19031;51.400;6.770;2023-02-04T01:35:34;8.10;99.90
32614;DHT22;19031;51.400;6.770;2023-02-04T01:38:00;8.00;99.90
32614;DHT22;19031;51.400;6.770;2023-02-04T01:40:25;8.00;99.90
32614;DHT22;19031;51.400;6.770;2023-02-04T01:42:51;8.00;99.90
32614;DHT22;19031;51.400;6.770;2023-02-04T01:45:17;8.00;99.90
32614;DHT22;19031;51.400;6.770;2023-02-04T01:47:43;7.90;99.90
32614;DHT22;19031;51.400;6.770;2023-02-04T01:50:12;8.00;99.90
32614;DHT22;19031;51.400;6.770;2023-02-04T01:52:39;8.00;99.90
32614;DHT22;19031;51.400;6.770;2023-02-04T01:55:15;7.90;99.90
32614;DHT22;19031;51.400;6.770;2023-02-04T01:57:42;7.90;99.90
32614;DHT22;19031;51.400;6.770;2023-02-04T02:00:16;7.90;99.90
32614;DHT22;19031;51.400;6.770;2023-02-04T02:02:47;7.80;99.90
32614;DHT22;19031;51.400;6.770;2023-02-04T02:05:17;7.90;99.90
32614;DHT22;19031;51.400;6.770;2023-02-04T02:07:43;7.90;99.90
32614;DHT22;19031;51.400;6.770;2023-02-04T02:10:11;8.00;99.90
32614;DHT22;19031;51.400;6.770;2023-02-04T02:12:36;7.80;99.90
32614;DHT22;19031;51.400;6.770;2023-02-04T02:15:03;7.90;99.90
32614;DHT22;19031;51.400;6.770;2023-02-04T02:17:28;7.80;99.90
32614;DHT22;19031;51.400;6.770;2023-02-04T02:19:54;8.00;99.90
32614;DHT22;19031;51.400;6.770;2023-02-04T02:24:48;7.90;99.90
32614;DHT22;19031;51.400;6.770;2023-02-04T02:27:14;7.90;99.90
32614;DHT22;19031;51.400;6.770;2023-02-04T02:29:40;7.90;99.90
32614;DHT22;19031;51.400;6.770;2023-02-04T02:32:07;7.80;99.90
32614;DHT22;19031;51.400;6.770;2023-02-04T02:34:34;7.80;99.90
32614;DHT22;19031;51.400;6.770;2023-02-04T02:37:01;7.80;99.90
32614;DHT22;19031;51.400;6.770;2023-02-04T02:39:27;7.80;99.90
32614;DHT22;19031;51.400;6.770;2023-02-04T02:41:54;7.90;99.90
32614;DHT22;19031;51.400;6.770;2023-02-04T02:44:20;7.80;99.90
32614;DHT22;19031;51.400;6.770;2023-02-04T02:46:46;7.80;99.90
32614;DHT22;19031;51.400;6.770;2023-02-04T02:49:17;7.80;99.90
32614;DHT22;19031;51.400;6.770;2023-02-04T02:51:44;7.80;99.90
32614;DHT22;19031;51.400;6.770;2023-02-04T02:54:22;7.80;99.90
32614;DHT22;19031;51.400;6.770;2023-02-04T02:56:48;7.90;99.90
32614;DHT22;19031;51.400;6.770;2023-02-04T02:59:15;7.80;99.90
32614;DHT22;19031;51.400;6.770;2023-02-04T03:01:41;7.70;99.90
32614;DHT22;19031;51.400;6.770;2023-02-04T03:04:08;7.70;99.90
32614;DHT22;19031;51.400;6.770;2023-02-04T03:06:34;7.80;99.90
32614;DHT22;19031;51.400;6.770;2023-02-04T03:09:00;7.80;99.90
32614;DHT22;19031;51.400;6.770;2023-02-04T03:11:26;7.80;99.90
32614;DHT22;19031;51.400;6.770;2023-02-04T03:13:55;7.80;99.90
32614;DHT22;19031;51.400;6.770;2023-02-04T03:16:21;7.80;99.90
32614;DHT22;19031;51.400;6.770;2023-02-04T03:18:46;7.70;99.90
32614;DHT22;19031;51.400;6.770;2023-02-04T03:21:12;7.70;99.90
32614;DHT22;19031;51.400;6.770;2023-02-04T03:23:38;7.70;99.90
32614;DHT22;19031;51.400;6.770;2023-02-04T03:26:04;7.60;99.90
32614;DHT22;19031;51.400;6.770;2023-02-04T03:28:30;7.60;99.90
32614;DHT22;19031;51.400;6.770;2023-02-04T03:30:56;7.60;99.90
32614;DHT22;19031;51.400;6.770;2023-02-04T03:33:25;7.60;99.90
32614;DHT22;19031;51.400;6.770;2023-02-04T03:35:52;7.60;99.90
32614;DHT22;19031;51.400;6.770;2023-02-04T03:38:18;7.60;99.90
32614;DHT22;19031;51.400;6.770;2023-02-04T03:40:43;7.50;99.90
32614;DHT22;19031;51.400;6.770;2023-02-04T03:43:09;7.50;99.90
32614;DHT22;19031;51.400;6.770;2023-02-04T03:45:35;7.50;99.90
32614;DHT22;19031;51.400;6.770;2023-02-04T03:48:01;7.50;99.90
32614;DHT22;19031;51.400;6.770;2023-02-04T03:50:26;7.50;99.90
32614;DHT22;19031;51.400;6.770;2023-02-04T03:52:52;7.50;99.90
32614;DHT22;19031;51.400;6.770;2023-02-04T03:55:18;7.60;99.90
32614;DHT22;19031;51.400;6.770;2023-02-04T03:57:44;7.50;99.90
32614;DHT22;19031;51.400;6.770;2023-02-04T04:00:10;7.40;99.90
32614;DHT22;19031;51.400;6.770;2023-02-04T04:02:36;7.40;99.90
32614;DHT22;19031;51.400;6.770;2023-02-04T04:05:01;7.40;99.90
32614;DHT22;19031;51.400;6.770;2023-02-04T04:07:27;7.30;99.90
32614;DHT22;19031;51.400;6.770;2023-02-04T04:09:53;7.30;99.90
32614;DHT22;19031;51.400;6.770;2023-02-04T04:12:18;7.40;99.90
32614;DHT22;19031;51.400;6.770;2023-02-04T04:14:44;7.30;99.90
32614;DHT22;19031;51.400;6.770;2023-02-04T04:17:09;7.30;99.90
32614;DHT22;19031;51.400;6.770;2023-02-04T04:19:35;7.30;99.90
32614;DHT22;19031;51.400;6.770;2023-02-04T04:22:01;7.20;99.90
32614;DHT22;19031;51.400;6.770;2023-02-04T04:24:26;7.30;99.90
32614;DHT22;19031;51.400;6.770;2023-02-04T04:26:52;7.30;99.90
32614;DHT22;19031;51.400;6.770;2023-02-04T04:29:17;7.40;99.90
32614;DHT22;19031;51.400;6.770;2023-02-04T04:31:43;7.30;99.90
32614;DHT22;19031;51.400;6.770;2023-02-04T04:34:09;7.30;99.90
32614;DHT22;19031;51.400;6.770;2023-02-04T04:36:35;7.30;99.90
32614;DHT22;19031;51.400;6.770;2023-02-04T04:39:01;7.40;99.90
32614;DHT22;19031;51.400;6.770;2023-02-04T04:41:26;7.40;99.90
32614;DHT22;19031;51.400;6.770;2023-02-04T04:43:52;7.30;99.90
32614;DHT22;19031;51.400;6.770;2023-02-04T04:46:18;7.30;99.90
32614;DHT22;19031;51.400;6.770;2023-02-04T04:48:43;7.10;99.90
32614;DHT22;19031;51.400;6.770;2023-02-04T04:51:09;7.20;99.90
32614;DHT22;19031;51.400;6.770;2023-02-04T04:53:34;7.20;99.90
32614;DHT22;19031;51.400;6.770;2023-02-04T04:56:00;7.10;99.90
32614;DHT22;19031;51.400;6.770;2023-02-04T04:58:25;7.20;99.90
32614;DHT22;19031;51.400;6.770;2023-02-04T05:00:51;7.10;99.90
32614;DHT22;19031;51.400;6.770;2023-02-04T05:03:16;7.20;99.90
32614;DHT22;19031;51.400;6.770;2023-02-04T05:05:42;7.10;99.90
32614;DHT22;19031;51.400;6.770;2023-02-04T05:08:08;7.20;99.90
32614;DHT22;19031;51.400;6.770;2023-02-04T05:10:38;7.20;99.90
32614;DHT22;19031;51.400;6.770;2023-02-04T05:13:03;7.20;99.90
32614;DHT22;19031;51.400;6.770;2023-02-04T05:15:29;7.20;99.90
32614;DHT22;19031;51.400;6.770;2023-02-04T05:17:55;7.10;99.90
32614;DHT22;19031;51.400;6.770;2023-02-04T05:20:20;7.10;99.90
32614;DHT22;19031;51.400;6.770;2023-02-04T05:22:46;7.10;99.90
32614;DHT22;19031;51.400;6.770;2023-02-04T05:25:12;7.00;99.90
32614;DHT22;19031;51.400;6.770;2023-02-04T05:27:37;7.10;99.90
32614;DHT22;19031;51.400;6.770;2023-02-04T05:30:03;6.90;99.90
32614;DHT22;19031;51.400;6.770;2023-02-04T05:32:28;7.00;99.90
32614;DHT22;19031;51.400;6.770;2023-02-04T05:34:54;7.00;99.90
32614;DHT22;19031;51.400;6.770;2023-02-04T05:37:19;7.00;99.90
32614;DHT22;19031;51.400;6.770;2023-02-04T05:39:46;7.00;99.90
32614;DHT22;19031;51.400;6.770;2023-02-04T05:42:12;7.10;99.90
32614;DHT22;19031;51.400;6.770;2023-02-04T05:44:37;7.10;99.90
32614;DHT22;19031;51.400;6.770;2023-02-04T05:47:03;7.00;99.90
32614;DHT22;19031;51.400;6.770;2023-02-04T05:49:28;7.10;99.90
32614;DHT22;19031;51.400;6.770;2023-02-04T05:51:54;7.00;99.90
32614;DHT22;19031;51.400;6.770;2023-02-04T05:54:20;7.00;99.90
32614;DHT22;19031;51.400;6.770;2023-02-04T05:56:46;7.00;99.90
32614;DHT22;19031;51.400;6.770;2023-02-04T05:59:12;7.00;99.90
32614;DHT22;19031;51.400;6.770;2023-02-04T06:01:38;7.00;99.90
32614;DHT22;19031;51.400;6.770;2023-02-04T06:04:03;7.00;99.90
32614;DHT22;19031;51.400;6.770;2023-02-04T06:06:29;7.00;99.90
32614;DHT22;19031;51.400;6.770;2023-02-04T06:08:54;7.00;99.90
32614;DHT22;19031;51.400;6.770;2023-02-04T06:11:20;7.10;99.90
32614;DHT22;19031;51.400;6.770;2023-02-04T06:13:45;7.10;99.90
32614;DHT22;19031;51.400;6.770;2023-02-04T06:16:11;7.10;99.90
32614;DHT22;19031;51.400;6.770;2023-02-04T06:18:37;7.00;99.90
32614;DHT22;19031;51.400;6.770;2023-02-04T06:21:02;7.10;99.90
32614;DHT22;19031;51.400;6.770;2023-02-04T06:23:30;7.10;99.90
32614;DHT22;19031;51.400;6.770;2023-02-04T06:25:55;7.00;99.90
32614;DHT22;19031;51.400;6.770;2023-02-04T06:28:21;7.00;99.90
32614;DHT22;19031;51.400;6.770;2023-02-04T06:30:46;7.10;99.90
32614;DHT22;19031;51.400;6.770;2023-02-04T06:33:13;7.10;99.90
32614;DHT22;19031;51.400;6.770;2023-02-04T06:35:39;7.10;99.90
32614;DHT22;19031;51.400;6.770;2023-02-04T06:38:04;7.20;99.90
32614;DHT22;19031;51.400;6.770;2023-02-04T06:40:30;7.20;99.90
32614;DHT22;19031;51.400;6.770;2023-02-04T06:42:56;7.20;99.90
32614;DHT22;19031;51.400;6.770;2023-02-04T06:45:21;7.20;99.90
32614;DHT22;19031;51.400;6.770;2023-02-04T06:47:47;7.20;99.90
32614;DHT22;19031;51.400;6.770;2023-02-04T06:50:12;7.30;99.90
32614;DHT22;19031;51.400;6.770;2023-02-04T06:52:46;7.20;99.90
32614;DHT22;19031;51.400;6.770;2023-02-04T06:55:13;7.20;99.90
32614;DHT22;19031;51.400;6.770;2023-02-04T06:57:39;7.10;99.90
32614;DHT22;19031;51.400;6.770;2023-02-04T07:00:08;7.10;99.90
32614;DHT22;19031;51.400;6.770;2023-02-04T07:02:35;7.10;99.90
32614;DHT22;19031;51.400;6.770;2023-02-04T07:05:02;7.10;99.90
32614;DHT22;19031;51.400;6.770;2023-02-04T07:07:28;7.20;99.90
32614;DHT22;19031;51.400;6.770;2023-02-04T07:09:54;7.10;99.90
32614;DHT22;19031;51.400;6.770;2023-02-04T07:12:19;7.10;99.90
32614;DHT22;19031;51.400;6.770;2023-02-04T07:14:45;7.20;99.90
32614;DHT22;19031;51.400;6.770;2023-02-04T07:17:11;7.10;99.90
32614;DHT22;19031;51.400;6.770;2023-02-04T07:19:36;7.20;99.90
32614;DHT22;19031;51.400;6.770;2023-02-04T07:22:03;7.20;99.90
32614;DHT22;19031;51.400;6.770;2023-02-04T07:24:28;7.10;99.90
32614;DHT22;19031;51.400;6.770;2023-02-04T07:26:54;7.10;99.90
32614;DHT22;19031;51.400;6.770;2023-02-04T07:29:20;7.10;99.90
32614;DHT22;19031;51.400;6.770;2023-02-04T07:31:46;7.10;99.90
32614;DHT22;19031;51.400;6.770;2023-02-04T07:34:14;7.10;99.90
32614;DHT22;19031;51.400;6.770;2023-02-04T07:36:40;7.10;99.90
32614;DHT22;19031;51.400;6.770;2023-02-04T07:39:06;7.10;99.90
32614;DHT22;19031;51.400;6.770;2023-02-04T07:41:32;7.10;99.90
32614;DHT22;19031;51.400;6.770;2023-02-04T07:43:58;7.10;99.90
32614;DHT22;19031;51.400;6.770;2023-02-04T07:46:24;7.10;99.90
32614;DHT22;19031;51.400;6.770;2023-02-04T07:48:49;7.20;99.90
32614;DHT22;19031;51.400;6.770;2023-02-04T07:51:15;7.20;99.90
32614;DHT22;19031;51.400;6.770;2023-02-04T07:53:40;7.20;99.90
32614;DHT22;19031;51.400;6.770;2023-02-04T07:56:06;7.20;99.90
32614;DHT22;19031;51.400;6.770;2023-02-04T07:58:32;7.20;99.90
32614;DHT22;19031;51.400;6.770;2023-02-04T08:00:57;7.20;99.90
32614;DHT22;19031;51.400;6.770;2023-02-04T08:03:23;7.20;99.90
32614;DHT22;19031;51.400;6.770;2023-02-04T08:05:48;7.30;99.90
32614;DHT22;19031;51.400;6.770;2023-02-04T08:08:14;7.30;99.90
32614;DHT22;19031;51.400;6.770;2023-02-04T08:10:40;7.40;99.90
32614;DHT22;19031;51.400;6.770;2023-02-04T08:13:06;7.40;99.90
32614;DHT22;19031;51.400;6.770;2023-02-04T08:15:32;7.40;99.90
32614;DHT22;19031;51.400;6.770;2023-02-04T08:17:57;7.50;99.90
32614;DHT22;19031;51.400;6.770;2023-02-04T08:20:23;7.40;99.90
32614;DHT22;19031;51.400;6.770;2023-02-04T08:22:49;7.50;99.90
32614;DHT22;19031;51.400;6.770;2023-02-04T08:25:15;7.50;99.90
32614;DHT22;19031;51.400;6.770;2023-02-04T08:27:40;7.50;99.90
32614;DHT22;19031;51.400;6.770;2023-02-04T08:30:07;7.60;99.90
32614;DHT22;19031;51.400;6.770;2023-02-04T08:32:33;7.60;99.90
32614;DHT22;19031;51.400;6.770;2023-02-04T08:34:59;7.50;99.90
32614;DHT22;19031;51.400;6.770;2023-02-04T08:37:25;7.60;99.90
32614;DHT22;19031;51.400;6.770;2023-02-04T08:39:54;7.60;99.90
32614;DHT22;19031;51.400;6.770;2023-02-04T08:42:20;7.60;99.90
32614;DHT22;19031;51.400;6.770;2023-02-04T08:44:46;7.60;99.90
32614;DHT22;19031;51.400;6.770;2023-02-04T08:47:12;7.60;99.90
32614;DHT22;19031;51.400;6.770;2023-02-04T08:49:37;7.70;99.90
32614;DHT22;19031;51.400;6.770;2023-02-04T08:52:03;7.70;99.90
32614;DHT22;19031;51.400;6.770;2023-02-04T08:54:30;7.80;99.90
32614;DHT22;19031;51.400;6.770;2023-02-04T08:56:59;7.80;99.90
32614;DHT22;19031;51.400;6.770;2023-02-04T08:59:24;8.00;99.90
32614;DHT22;19031;51.400;6.770;2023-02-04T09:01:51;8.00;99.90
32614;DHT22;19031;51.400;6.770;2023-02-04T09:04:21;8.10;99.90
32614;DHT22;19031;51.400;6.770;2023-02-04T09:06:48;8.00;99.90
32614;DHT22;19031;51.400;6.770;2023-02-04T09:09:15;8.00;99.90
32614;DHT22;19031;51.400;6.770;2023-02-04T09:11:41;8.00;99.90
32614;DHT22;19031;51.400;6.770;2023-02-04T09:14:07;8.00;99.90
32614;DHT22;19031;51.400;6.770;2023-02-04T09:16:33;8.00;99.90
32614;DHT22;19031;51.400;6.770;2023-02-04T09:18:59;8.20;99.90
32614;DHT22;19031;51.400;6.770;2023-02-04T09:21:26;8.30;99.90
32614;DHT22;19031;51.400;6.770;2023-02-04T09:23:52;8.30;99.90
32614;DHT22;19031;51.400;6.770;2023-02-04T09:26:17;8.50;99.90
32614;DHT22;19031;51.400;6.770;2023-02-04T09:28:43;8.60;99.90
32614;DHT22;19031;51.400;6.770;2023-02-04T09:31:09;8.70;99.90
32614;DHT22;19031;51.400;6.770;2023-02-04T09:33:35;8.80;99.90
32614;DHT22;19031;51.400;6.770;2023-02-04T09:36:01;9.00;99.90
32614;DHT22;19031;51.400;6.770;2023-02-04T09:38:27;9.00;99.90
32614;DHT22;19031;51.400;6.770;2023-02-04T09:41:02;8.90;99.90
32614;DHT22;19031;51.400;6.770;2023-02-04T09:43:30;9.10;99.90
32614;DHT22;19031;51.400;6.770;2023-02-04T09:45:57;9.00;99.90
32614;DHT22;19031;51.400;6.770;2023-02-04T09:48:24;9.20;99.90
32614;DHT22;19031;51.400;6.770;2023-02-04T09:50:50;9.40;99.90
32614;DHT22;19031;51.400;6.770;2023-02-04T09:53:19;9.30;99.90
32614;DHT22;19031;51.400;6.770;2023-02-04T09:55:46;9.60;99.90
32614;DHT22;19031;51.400;6.770;2023-02-04T09:58:16;9.50;99.90
32614;DHT22;19031;51.400;6.770;2023-02-04T10:00:43;9.50;99.90
32614;DHT22;19031;51.400;6.770;2023-02-04T10:03:16;9.50;99.90
32614;DHT22;19031;51.400;6.770;2023-02-04T10:05:44;9.70;99.90
32614;DHT22;19031;51.400;6.770;2023-02-04T10:08:16;9.70;99.90
32614;DHT22;19031;51.400;6.770;2023-02-04T10:10:43;9.60;99.90
32614;DHT22;19031;51.400;6.770;2023-02-04T10:13:19;9.70;99.90
32614;DHT22;19031;51.400;6.770;2023-02-04T10:15:47;9.60;99.90
32614;DHT22;19031;51.400;6.770;2023-02-04T10:18:34;9.80;99.90
32614;DHT22;19031;51.400;6.770;2023-02-04T10:23:41;10.10;99.90
32614;DHT22;19031;51.400;6.770;2023-02-04T10:26:11;10.10;99.90
32614;DHT22;19031;51.400;6.770;2023-02-04T10:28:38;10.00;99.90
32614;DHT22;19031;51.400;6.770;2023-02-04T10:31:05;10.10;99.90
32614;DHT22;19031;51.400;6.770;2023-02-04T10:33:34;10.10;99.90
32614;DHT22;19031;51.400;6.770;2023-02-04T10:36:04;10.10;99.90
32614;DHT22;19031;51.400;6.770;2023-02-04T10:38:30;10.20;99.90
32614;DHT22;19031;51.400;6.770;2023-02-04T10:41:03;9.90;99.90
32614;DHT22;19031;51.400;6.770;2023-02-04T10:43:30;9.90;99.90
32614;DHT22;19031;51.400;6.770;2023-02-04T10:45:58;10.00;99.90
32614;DHT22;19031;51.400;6.770;2023-02-04T10:48:25;10.00;99.90
32614;DHT22;19031;51.400;6.770;2023-02-04T10:50:51;10.20;99.90
32614;DHT22;19031;51.400;6.770;2023-02-04T10:53:21;10.20;99.90
32614;DHT22;19031;51.400;6.770;2023-02-04T10:56:20;10.50;99.90
32614;DHT22;19031;51.400;6.770;2023-02-04T10:58:47;10.60;99.90
32614;DHT22;19031;51.400;6.770;2023-02-04T11:01:15;10.90;99.90
32614;DHT22;19031;51.400;6.770;2023-02-04T11:03:43;11.10;99.90
32614;DHT22;19031;51.400;6.770;2023-02-04T11:06:19;11.00;99.90
32614;DHT22;19031;51.400;6.770;2023-02-04T11:08:45;11.20;99.90
32614;DHT22;19031;51.400;6.770;2023-02-04T11:11:24;11.00;99.90
32614;DHT22;19031;51.400;6.770;2023-02-04T11:16:46;10.80;99.90
32614;DHT22;19031;51.400;6.770;2023-02-04T11:19:31;10.70;99.90
32614;DHT22;19031;51.400;6.770;2023-02-04T11:22:05;10.70;99.90
32614;DHT22;19031;51.400;6.770;2023-02-04T11:24:32;10.90;99.90
32614;DHT22;19031;51.400;6.770;2023-02-04T11:29:47;11.10;99.90
32614;DHT22;19031;51.400;6.770;2023-02-04T11:32:36;11.10;99.90
32614;DHT22;19031;51.400;6.770;2023-02-04T11:35:27;11.10;96.10
32614;DHT22;19031;51.400;6.770;2023-02-04T11:37:53;11.10;94.00
32614;DHT22;19031;51.400;6.770;2023-02-04T11:42:48;11.30;91.70
32614;DHT22;19031;51.400;6.770;2023-02-04T11:45:19;11.40;92.40
32614;DHT22;19031;51.400;6.770;2023-02-04T11:47:46;11.30;88.60
32614;DHT22;19031;51.400;6.770;2023-02-04T11:50:32;11.30;84.30
32614;DHT22;19031;51.400;6.770;2023-02-04T11:53:04;11.30;91.50
32614;DHT22;19031;51.400;6.770;2023-02-04T11:55:34;11.30;91.00
32614;DHT22;19031;51.400;6.770;2023-02-04T11:58:00;11.60;93.80
32614;DHT22;19031;51.400;6.770;2023-02-04T12:00:29;11.80;90.50
32614;DHT22;19031;51.400;6.770;2023-02-04T12:02:59;11.80;80.20
32614;DHT22;19031;51.400;6.770;2023-02-04T12:05:44;11.60;90.60
32614;DHT22;19031;51.400;6.770;2023-02-04T12:08:31;11.80;88.10
32614;DHT22;19031;51.400;6.770;2023-02-04T12:11:09;11.90;82.70
32614;DHT22;19031;51.400;6.770;2023-02-04T12:14:09;12.00;78.40
32614;DHT22;19031;51.400;6.770;2023-02-04T12:16:55;12.00;63.20
32614;DHT22;19031;51.400;6.770;2023-02-04T12:19:21;11.90;69.80
32614;DHT22;19031;51.400;6.770;2023-02-04T12:21:50;11.90;63.50
32614;DHT22;19031;51.400;6.770;2023-02-04T12:24:18;12.10;67.40
32614;DHT22;19031;51.400;6.770;2023-02-04T12:26:46;12.30;68.30
32614;DHT22;19031;51.400;6.770;2023-02-04T12:29:12;12.40;63.70
32614;DHT22;19031;51.400;6.770;2023-02-04T12:31:39;12.40;67.70
32614;DHT22;19031;51.400;6.770;2023-02-04T12:34:05;12.50;68.90
32614;DHT22;19031;51.400;6.770;2023-02-04T12:36:31;12.60;49.80
32614;DHT22;19031;51.400;6.770;2023-02-04T12:38:58;12.40;60.20
32614;DHT22;19031;51.400;6.770;2023-02-04T12:41:25;12.40;56.60
32614;DHT22;19031;51.400;6.770;2023-02-04T12:43:54;12.30;56.70
32614;DHT22;19031;51.400;6.770;2023-02-04T12:46:21;12.40;59.80
32614;DHT22;19031;51.400;6.770;2023-02-04T12:49:12;12.20;49.50
32614;DHT22;19031;51.400;6.770;2023-02-04T12:51:40;12.30;66.70
32614;DHT22;19031;51.400;6.770;2023-02-04T12:54:05;12.50;54.20
32614;DHT22;19031;51.400;6.770;2023-02-04T12:56:31;12.60;58.20
32614;DHT22;19031;51.400;6.770;2023-02-04T12:59:00;12.50;63.60
32614;DHT22;19031;51.400;6.770;2023-02-04T13:01:26;12.60;56.40
32614;DHT22;19031;51.400;6.770;2023-02-04T13:03:53;12.30;28.70
32614;DHT22;19031;51.400;6.770;2023-02-04T13:06:19;12.00;39.70
32614;DHT22;19031;51.400;6.770;2023-02-04T13:08:44;11.60;46.90
32614;DHT22;19031;51.400;6.770;2023-02-04T13:11:10;11.50;59.10
32614;DHT22;19031;51.400;6.770;2023-02-04T13:13:36;11.20;51.70
32614;DHT22;19031;51.400;6.770;2023-02-04T13:16:01;10.90;59.90
32614;DHT22;19031;51.400;6.770;2023-02-04T13:18:30;10.70;65.40
32614;DHT22;19031;51.400;6.770;2023-02-04T13:20:56;10.80;67.40
32614;DHT22;19031;51.400;6.770;2023-02-04T13:23:22;10.70;69.80
32614;DHT22;19031;51.400;6.770;2023-02-04T13:25:48;10.70;74.70
32614;DHT22;19031;51.400;6.770;2023-02-04T13:28:14;10.70;69.00
32614;DHT22;19031;51.400;6.770;2023-02-04T13:30:40;10.40;76.40
32614;DHT22;19031;51.400;6.770;2023-02-04T13:33:05;10.50;76.10
32614;DHT22;19031;51.400;6.770;2023-02-04T13:35:31;10.50;70.30
32614;DHT22;19031;51.400;6.770;2023-02-04T13:37:58;10.50;74.70
32614;DHT22;19031;51.400;6.770;2023-02-04T13:40:24;10.50;75.80
32614;DHT22;19031;51.400;6.770;2023-02-04T13:42:49;10.30;65.70
32614;DHT22;19031;51.400;6.770;2023-02-04T13:45:15;10.40;70.10
32614;DHT22;19031;51.400;6.770;2023-02-04T13:47:46;10.30;73.50
32614;DHT22;19031;51.400;6.770;2023-02-04T13:50:14;10.10;74.60
32614;DHT22;19031;51.400;6.770;2023-02-04T13:52:40;10.30;75.00
32614;DHT22;19031;51.400;6.770;2023-02-04T13:55:06;10.20;79.10
32614;DHT22;19031;51.400;6.770;2023-02-04T13:57:32;10.00;76.50
32614;DHT22;19031;51.400;6.770;2023-02-04T13:59:58;10.00;73.20
32614;DHT22;19031;51.400;6.770;2023-02-04T14:02:24;10.00;71.10
32614;DHT22;19031;51.400;6.770;2023-02-04T14:04:50;10.00;71.10
32614;DHT22;19031;51.400;6.770;2023-02-04T14:07:16;10.10;65.20
32614;DHT22;19031;51.400;6.770;2023-02-04T14:09:41;10.00;57.20
32614;DHT22;19031;51.400;6.770;2023-02-04T14:12:08;10.00;53.70
32614;DHT22;19031;51.400;6.770;2023-02-04T14:14:34;9.80;57.80
32614;DHT22;19031;51.400;6.770;2023-02-04T14:16:59;9.80;62.10
32614;DHT22;19031;51.400;6.770;2023-02-04T14:19:25;9.80;71.80
32614;DHT22;19031;51.400;6.770;2023-02-04T14:21:52;9.80;70.60
32614;DHT22;19031;51.400;6.770;2023-02-04T14:24:21;9.90;76.70
32614;DHT22;19031;51.400;6.770;2023-02-04T14:26:47;9.90;81.20
32614;DHT22;19031;51.400;6.770;2023-02-04T14:29:13;9.80;87.50
32614;DHT22;19031;51.400;6.770;2023-02-04T14:31:39;9.90;89.90
32614;DHT22;19031;51.400;6.770;2023-02-04T14:34:05;9.80;89.50
32614;DHT22;19031;51.400;6.770;2023-02-04T14:36:30;9.80;91.30
32614;DHT22;19031;51.400;6.770;2023-02-04T14:38:56;9.90;88.00
32614;DHT22;19031;51.400;6.770;2023-02-04T14:41:22;9.90;81.60
32614;DHT22;19031;51.400;6.770;2023-02-04T14:43:47;10.00;80.80
32614;DHT22;19031;51.400;6.770;2023-02-04T14:46:13;10.00;87.10
32614;DHT22;19031;51.400;6.770;2023-02-04T14:48:39;10.00;81.30
32614;DHT22;19031;51.400;6.770;2023-02-04T14:51:05;10.00;79.40
32614;DHT22;19031;51.400;6.770;2023-02-04T14:53:33;10.20;83.70
32614;DHT22;19031;51.400;6.770;2023-02-04T14:55:59;10.30;78.30
32614;DHT22;19031;51.400;6.770;2023-02-04T14:58:25;10.40;76.60
32614;DHT22;19031;51.400;6.770;2023-02-04T15:00:50;10.50;73.40
32614;DHT22;19031;51.400;6.770;2023-02-04T15:03:16;10.50;68.30
32614;DHT22;19031;51.400;6.770;2023-02-04T15:05:42;10.50;63.60
32614;DHT22;19031;51.400;6.770;2023-02-04T15:08:08;10.60;62.20
32614;DHT22;19031;51.400;6.770;2023-02-04T15:10:34;10.40;47.10
32614;DHT22;19031;51.400;6.770;2023-02-04T15:13:00;10.30;47.50
32614;DHT22;19031;51.400;6.770;2023-02-04T15:15:25;10.20;35.40
32614;DHT22;19031;51.400;6.770;2023-02-04T15:17:54;10.20;27.30
32614;DHT22;19031;51.400;6.770;2023-02-04T15:20:20;10.20;34.90
32614;DHT22;19031;51.400;6.770;2023-02-04T15:22:45;10.20;28.00
32614;DHT22;19031;51.400;6.770;2023-02-04T15:25:16;10.10;29.80
32614;DHT22;19031;51.400;6.770;2023-02-04T15:27:41;10.00;38.20
32614;DHT22;19031;51.400;6.770;2023-02-04T15:30:07;10.00;37.70
32614;DHT22;19031;51.400;6.770;2023-02-04T15:32:33;9.80;45.60
32614;DHT22;19031;51.400;6.770;2023-02-04T15:34:59;9.70;45.30
32614;DHT22;19031;51.400;6.770;2023-02-04T15:37:25;9.80;43.70
32614;DHT22;19031;51.400;6.770;2023-02-04T15:39:50;9.70;40.60
32614;DHT22;19031;51.400;6.770;2023-02-04T15:42:16;9.60;46.70
32614;DHT22;19031;51.400;6.770;2023-02-04T15:44:42;9.60;47.60
32614;DHT22;19031;51.400;6.770;2023-02-04T15:47:07;9.50;45.70
32614;DHT22;19031;51.400;6.770;2023-02-04T15:49:33;9.40;44.30
32614;DHT22;19031;51.400;6.770;2023-02-04T15:52:00;9.30;47.60
32614;DHT22;19031;51.400;6.770;2023-02-04T15:54:26;9.30;46.90